createdAt,value
2018-10-19T00:02:15.217Z,8.50
2018-10-19T00:04:50.204Z,8.40
2018-10-19T00:07:20.225Z,8.40
2018-10-19T00:09:51.659Z,8.40
2018-10-19T00:12:22.597Z,8.40
2018-10-19T00:14:52.910Z,8.30
2018-10-19T00:17:23.569Z,8.20
2018-10-19T00:19:53.275Z,8.20
2018-10-19T00:22:23.589Z,8.20
2018-10-19T00:24:53.055Z,8.10
2018-10-19T00:27:23.377Z,8.10
2018-10-19T00:29:54.757Z,8.10
2018-10-19T00:32:26.220Z,8.00
2018-10-19T00:34:56.351Z,8.00
2018-10-19T00:37:27.752Z,8.00
2018-10-19T00:40:00.308Z,8.00
2018-10-19T00:42:31.238Z,8.00
2018-10-19T00:45:00.706Z,7.90
2018-10-19T00:47:31.816Z,7.90
2018-10-19T00:50:03.316Z,7.90
2018-10-19T00:52:37.399Z,7.90
2018-10-19T00:55:09.755Z,7.80
2018-10-19T00:57:40.005Z,7.80
2018-10-19T01:00:09.433Z,7.80
2018-10-19T01:02:44.147Z,7.80
2018-10-19T01:05:14.450Z,7.80
2018-10-19T01:07:44.052Z,7.80
2018-10-19T01:10:20.796Z,7.80
2018-10-19T01:12:50.714Z,7.80
2018-10-19T01:15:19.699Z,7.70
2018-10-19T01:17:49.506Z,7.70
2018-10-19T01:20:18.749Z,7.70
2018-10-19T01:22:47.870Z,7.70
2018-10-19T01:25:17.017Z,7.70
2018-10-19T01:27:46.169Z,7.70
2018-10-19T01:30:16.725Z,7.70
2018-10-19T01:32:46.825Z,7.60
2018-10-19T01:35:15.797Z,7.60
2018-10-19T01:37:44.726Z,7.60
2018-10-19T01:40:14.253Z,7.70
2018-10-19T01:42:43.237Z,7.70
2018-10-19T01:45:13.763Z,7.60
2018-10-19T01:47:43.214Z,7.60
2018-10-19T01:50:12.443Z,7.50
2018-10-19T01:52:43.162Z,7.50
2018-10-19T01:55:12.104Z,7.50
2018-10-19T01:57:41.130Z,7.50
2018-10-19T02:00:10.180Z,7.50
2018-10-19T02:02:39.759Z,7.50
2018-10-19T02:05:08.988Z,7.40
2018-10-19T02:07:39.208Z,7.40
2018-10-19T02:10:08.346Z,7.40
2018-10-19T02:12:39.549Z,7.30
2018-10-19T02:15:09.084Z,7.30
2018-10-19T02:17:38.050Z,7.30
2018-10-19T02:20:07.249Z,7.20
2018-10-19T02:22:36.141Z,7.30
2018-10-19T02:25:06.093Z,7.30
2018-10-19T02:27:35.053Z,7.30
2018-10-19T02:30:04.091Z,7.20
2018-10-19T02:32:34.468Z,7.20
2018-10-19T02:35:03.460Z,7.20
2018-10-19T02:37:32.553Z,7.20
2018-10-19T02:40:02.166Z,7.20
2018-10-19T02:42:31.986Z,7.20
2018-10-19T02:45:01.394Z,7.20
2018-10-19T02:47:30.516Z,7.20
2018-10-19T02:49:59.435Z,7.20
2018-10-19T02:52:28.326Z,7.10
2018-10-19T02:54:57.247Z,7.00
2018-10-19T02:57:26.152Z,7.00
2018-10-19T02:59:55.262Z,6.90
2018-10-19T03:02:24.302Z,6.80
2018-10-19T03:04:54.235Z,6.80
2018-10-19T03:07:23.333Z,6.70
2018-10-19T03:09:53.001Z,6.70
2018-10-19T03:12:23.285Z,6.70
2018-10-19T03:14:53.786Z,6.60
2018-10-19T03:17:23.387Z,6.60
2018-10-19T03:19:53.101Z,6.60
2018-10-19T03:22:22.934Z,6.60
2018-10-19T03:24:52.537Z,6.60
2018-10-19T03:27:21.590Z,6.50
2018-10-19T03:29:51.550Z,6.50
2018-10-19T03:32:21.310Z,6.50
2018-10-19T03:34:50.252Z,6.40
2018-10-19T03:37:19.252Z,6.50
2018-10-19T03:39:48.968Z,6.40
2018-10-19T03:42:18.998Z,6.40
2018-10-19T03:44:47.913Z,6.30
2018-10-19T03:47:16.970Z,6.30
2018-10-19T03:49:45.855Z,6.30
2018-10-19T03:52:14.800Z,6.40
2018-10-19T03:54:43.884Z,6.40
2018-10-19T03:57:12.798Z,6.30
2018-10-19T03:59:41.932Z,6.30
2018-10-19T04:02:10.946Z,6.40
2018-10-19T04:04:39.968Z,6.40
2018-10-19T04:07:10.267Z,6.30
2018-10-19T04:09:39.487Z,6.30
2018-10-19T04:12:09.063Z,6.20
2018-10-19T04:14:38.629Z,6.20
2018-10-19T04:17:07.827Z,6.20
2018-10-19T04:19:36.718Z,6.20
2018-10-19T04:22:05.699Z,6.30
2018-10-19T04:24:34.745Z,6.20
2018-10-19T04:27:03.758Z,6.30
2018-10-19T04:29:33.393Z,6.20
2018-10-19T04:32:02.523Z,6.20
2018-10-19T04:34:31.519Z,6.20
2018-10-19T04:37:03.509Z,6.20
2018-10-19T04:39:34.081Z,6.20
2018-10-19T04:42:04.500Z,6.20
2018-10-19T04:44:33.933Z,6.20
2018-10-19T04:47:02.935Z,6.20
2018-10-19T04:49:31.851Z,6.20
2018-10-19T04:52:00.840Z,6.20
2018-10-19T04:54:29.672Z,6.20
2018-10-19T04:56:58.669Z,6.10
2018-10-19T04:59:27.728Z,6.10
2018-10-19T05:01:57.629Z,6.20
2018-10-19T05:04:26.735Z,6.10
2018-10-19T05:06:55.843Z,6.10
2018-10-19T05:09:25.553Z,6.10
2018-10-19T05:11:54.415Z,6.10
2018-10-19T05:14:24.129Z,6.00
2018-10-19T05:16:54.031Z,6.00
2018-10-19T05:19:27.893Z,5.90
2018-10-19T05:21:56.962Z,6.00
2018-10-19T05:24:25.709Z,6.00
2018-10-19T05:26:55.465Z,5.90
2018-10-19T05:29:24.227Z,5.90
2018-10-19T05:31:53.047Z,5.80
2018-10-19T05:34:23.885Z,5.90
2018-10-19T05:36:53.446Z,5.80
2018-10-19T05:39:22.255Z,5.80
2018-10-19T05:41:50.969Z,5.80
2018-10-19T05:44:21.078Z,5.80
2018-10-19T05:46:50.010Z,5.70
2018-10-19T05:49:18.796Z,5.70
2018-10-19T05:51:47.815Z,5.70
2018-10-19T05:54:16.676Z,5.70
2018-10-19T05:56:46.804Z,5.70
2018-10-19T05:59:15.781Z,5.80
2018-10-19T06:01:44.547Z,5.70
2018-10-19T06:04:13.411Z,5.70
2018-10-19T06:06:42.239Z,5.80
2018-10-19T06:09:11.557Z,5.80
2018-10-19T06:11:40.763Z,5.70
2018-10-19T06:14:10.754Z,5.80
2018-10-19T06:16:40.214Z,5.80
2018-10-19T06:19:10.422Z,5.80
2018-10-19T06:21:39.438Z,5.80
2018-10-19T06:24:09.102Z,5.80
2018-10-19T06:26:43.361Z,5.80
2018-10-19T06:29:12.488Z,5.80
2018-10-19T06:31:41.282Z,5.80
2018-10-19T06:34:10.158Z,5.80
2018-10-19T06:36:38.888Z,5.80
2018-10-19T06:39:09.550Z,5.80
2018-10-19T06:41:39.076Z,5.80
2018-10-19T06:44:08.685Z,5.90
2018-10-19T06:46:37.402Z,5.90
2018-10-19T06:49:07.286Z,5.90
2018-10-19T06:51:36.033Z,6.00
2018-10-19T06:54:05.026Z,5.90
2018-10-19T06:56:34.381Z,6.00
2018-10-19T06:59:03.367Z,6.00
2018-10-19T07:01:32.067Z,6.10
2018-10-19T07:04:00.964Z,6.10
2018-10-19T07:06:29.850Z,6.10
2018-10-19T07:08:59.275Z,6.10
2018-10-19T07:11:28.910Z,6.20
2018-10-19T07:13:57.859Z,6.30
2018-10-19T07:16:26.672Z,6.30
2018-10-19T07:18:55.543Z,6.40
2018-10-19T07:21:24.441Z,6.40
2018-10-19T07:23:54.379Z,6.50
2018-10-19T07:26:23.617Z,6.60
2018-10-19T07:28:53.568Z,6.70
2018-10-19T07:31:22.729Z,6.70
2018-10-19T07:33:52.198Z,6.80
2018-10-19T07:36:21.232Z,6.90
2018-10-19T07:38:51.052Z,7.00
2018-10-19T07:41:19.971Z,7.00
2018-10-19T07:43:48.838Z,7.10
2018-10-19T07:46:17.764Z,7.20
2018-10-19T07:48:46.804Z,7.30
2018-10-19T07:51:15.608Z,7.30
2018-10-19T07:53:44.583Z,7.40
2018-10-19T07:56:13.599Z,7.50
2018-10-19T07:58:42.818Z,7.50
2018-10-19T08:01:11.900Z,7.60
2018-10-19T08:03:40.744Z,7.70
2018-10-19T08:06:09.834Z,7.90
2018-10-19T08:08:38.936Z,8.00
2018-10-19T08:11:08.046Z,8.10
2018-10-19T08:13:37.069Z,8.30
2018-10-19T08:16:05.984Z,8.40
2018-10-19T08:18:35.074Z,8.60
2018-10-19T08:21:04.275Z,8.70
2018-10-19T08:23:33.126Z,8.80
2018-10-19T08:26:02.186Z,9.00
2018-10-19T08:28:31.098Z,9.00
2018-10-19T08:31:00.123Z,9.10
2018-10-19T08:33:29.014Z,9.30
2018-10-19T08:35:58.126Z,9.40
2018-10-19T08:38:26.900Z,9.50
2018-10-19T08:40:55.891Z,9.70
2018-10-19T08:43:24.813Z,9.80
2018-10-19T08:45:53.676Z,9.90
2018-10-19T08:48:22.475Z,10.00
2018-10-19T08:50:51.665Z,10.10
2018-10-19T08:53:20.575Z,10.30
2018-10-19T08:55:49.427Z,10.30
2018-10-19T08:58:18.330Z,10.50
2018-10-19T09:00:47.104Z,10.60
2018-10-19T09:03:16.127Z,10.80
2018-10-19T09:05:44.898Z,10.80
2018-10-19T09:08:13.868Z,10.90
2018-10-19T09:10:42.652Z,10.90
2018-10-19T09:13:11.906Z,11.00
2018-10-19T09:15:40.754Z,11.00
2018-10-19T09:18:09.554Z,11.10
2018-10-19T09:20:38.404Z,11.10
2018-10-19T09:23:07.275Z,11.10
2018-10-19T09:25:36.182Z,11.20
2018-10-19T09:28:05.124Z,11.20
2018-10-19T09:30:34.707Z,11.30
2018-10-19T09:33:03.673Z,11.40
2018-10-19T09:35:32.624Z,11.50
2018-10-19T09:38:01.343Z,11.60
2018-10-19T09:40:30.184Z,11.70
2018-10-19T09:42:58.895Z,11.80
2018-10-19T09:45:27.671Z,11.90
2018-10-19T09:47:56.469Z,12.00
2018-10-19T09:50:25.275Z,12.00
2018-10-19T09:52:54.647Z,12.00
2018-10-19T09:55:23.584Z,12.00
2018-10-19T09:57:52.530Z,12.10
2018-10-19T10:00:26.546Z,12.20
2018-10-19T10:02:55.375Z,12.30
2018-10-19T10:05:24.363Z,12.30
2018-10-19T10:07:53.233Z,12.40
2018-10-19T10:10:21.926Z,12.50
2018-10-19T10:12:50.693Z,12.70
2018-10-19T10:15:19.543Z,12.80
2018-10-19T10:17:48.313Z,13.00
2018-10-19T10:20:17.077Z,13.20
2018-10-19T10:22:46.997Z,13.30
2018-10-19T10:25:15.907Z,13.30
2018-10-19T10:27:45.090Z,13.50
2018-10-19T10:30:13.871Z,13.60
2018-10-19T10:32:43.757Z,13.60
2018-10-19T10:35:13.422Z,13.70
2018-10-19T10:37:42.416Z,13.80
2018-10-19T10:40:11.452Z,13.80
2018-10-19T10:42:40.278Z,14.00
2018-10-19T10:45:09.407Z,14.10
2018-10-19T10:47:38.417Z,14.20
2018-10-19T10:50:07.457Z,14.20
2018-10-19T10:52:38.326Z,14.20
2018-10-19T10:55:07.696Z,14.20
2018-10-19T10:57:36.772Z,14.10
2018-10-19T11:00:06.219Z,13.90
2018-10-19T11:02:35.283Z,13.80
2018-10-19T11:05:05.407Z,13.70
2018-10-19T11:07:34.517Z,13.70
2018-10-19T11:10:03.458Z,13.80
2018-10-19T11:12:32.421Z,13.90
2018-10-19T11:15:01.449Z,14.00
2018-10-19T11:17:30.264Z,14.10
2018-10-19T11:19:59.304Z,14.20
2018-10-19T11:22:28.186Z,14.20
2018-10-19T11:24:57.080Z,14.30
2018-10-19T11:27:25.859Z,14.50
2018-10-19T11:29:54.793Z,14.60
2018-10-19T11:32:23.700Z,14.70
2018-10-19T11:34:52.603Z,14.70
2018-10-19T11:37:21.397Z,14.70
2018-10-19T11:40:01.536Z,14.70
2018-10-19T11:42:30.465Z,14.80
2018-10-19T11:44:59.775Z,14.80
2018-10-19T11:47:28.640Z,14.80
2018-10-19T11:49:59.138Z,14.80
2018-10-19T11:52:29.743Z,14.70
2018-10-19T11:54:58.850Z,14.60
2018-10-19T11:57:27.827Z,14.70
2018-10-19T11:59:56.844Z,14.60
2018-10-19T12:02:25.801Z,14.70
2018-10-19T12:04:54.989Z,14.80
2018-10-19T12:07:23.886Z,14.80
2018-10-19T12:09:52.826Z,15.10
2018-10-19T12:12:21.762Z,15.30
2018-10-19T12:14:50.668Z,15.50
2018-10-19T12:17:22.238Z,15.60
2018-10-19T12:19:56.452Z,15.80
2018-10-19T12:22:25.384Z,15.90
2018-10-19T12:24:54.554Z,16.20
2018-10-19T12:27:24.610Z,16.30
2018-10-19T12:29:55.603Z,16.40
2018-10-19T12:32:26.735Z,16.10
2018-10-19T12:35:13.305Z,16.00
2018-10-19T12:37:43.231Z,16.00
2018-10-19T12:40:13.063Z,16.10
2018-10-19T12:42:42.984Z,16.20
2018-10-19T12:46:24.373Z,16.20
2018-10-19T12:48:53.887Z,16.30
2018-10-19T12:51:23.883Z,16.40
2018-10-19T12:53:54.939Z,16.30
2018-10-19T12:56:24.430Z,16.10
2018-10-19T12:58:54.070Z,16.10
2018-10-19T13:01:24.169Z,16.20
2018-10-19T13:03:54.300Z,16.30
2018-10-19T13:06:23.375Z,16.40
2018-10-19T13:08:52.961Z,16.60
2018-10-19T13:11:22.192Z,16.60
2018-10-19T13:14:00.116Z,16.70
2018-10-19T13:16:32.508Z,16.60
2018-10-19T13:19:04.699Z,16.20
2018-10-19T13:21:34.859Z,16.10
2018-10-19T13:24:07.140Z,16.20
2018-10-19T13:26:36.532Z,16.30
2018-10-19T13:29:06.136Z,16.50
2018-10-19T13:31:35.640Z,16.30
2018-10-19T13:34:05.679Z,16.00
2018-10-19T13:36:38.480Z,16.10
2018-10-19T13:39:10.395Z,16.30
2018-10-19T13:41:39.600Z,16.50
2018-10-19T13:44:08.594Z,16.40
2018-10-19T13:46:37.670Z,16.10
2018-10-19T13:49:09.195Z,16.40
2018-10-19T13:51:38.650Z,16.80
2018-10-19T13:54:10.864Z,17.20
2018-10-19T13:56:41.678Z,17.20
2018-10-19T13:59:10.970Z,17.50
2018-10-19T14:01:45.608Z,17.30
2018-10-19T14:04:15.729Z,17.00
2018-10-19T14:06:44.908Z,16.70
2018-10-19T14:09:17.990Z,16.40
2018-10-19T14:14:47.422Z,15.80
2018-10-19T14:17:16.456Z,15.70
2018-10-19T14:19:45.816Z,15.50
2018-10-19T14:22:14.757Z,15.40
2018-10-19T14:24:45.034Z,15.30
2018-10-19T14:27:16.101Z,15.20
2018-10-19T14:29:46.506Z,15.10
2018-10-19T14:32:16.008Z,15.10
2018-10-19T14:34:45.424Z,15.00
2018-10-19T14:37:21.498Z,14.80
2018-10-19T14:39:55.827Z,14.80
2018-10-19T14:42:25.013Z,14.80
2018-10-19T14:44:54.206Z,14.80
2018-10-19T14:47:24.252Z,15.00
2018-10-19T14:49:54.800Z,15.10
2018-10-19T14:52:24.476Z,15.20
2018-10-19T14:54:53.340Z,15.20
2018-10-19T14:57:22.798Z,15.20
2018-10-19T14:59:51.864Z,15.20
2018-10-19T15:02:21.840Z,15.10
2018-10-19T15:04:50.897Z,15.00
2018-10-19T15:07:20.646Z,14.90
2018-10-19T15:09:50.680Z,14.70
2018-10-19T15:12:21.604Z,14.50
2018-10-19T15:14:59.606Z,14.50
2018-10-19T15:17:35.188Z,14.40
2018-10-19T15:20:11.939Z,14.30
2018-10-19T15:22:48.869Z,14.30
2018-10-19T15:25:27.324Z,14.20
2018-10-19T15:28:11.769Z,14.10
2018-10-19T15:30:49.063Z,14.00
2018-10-19T15:34:59.000Z,14.00
2018-10-19T15:37:57.395Z,13.80
2018-10-19T15:40:41.013Z,13.80
2018-10-19T15:46:16.200Z,13.70
2018-10-19T15:48:47.209Z,13.60
2018-10-19T15:51:23.596Z,13.60
2018-10-19T15:54:24.913Z,13.40
2018-10-19T15:57:06.569Z,13.30
2018-10-19T16:00:09.048Z,13.20
2018-10-19T16:12:28.584Z,13.10
2018-10-19T16:18:22.412Z,12.90
2018-10-19T16:21:01.243Z,12.70
2018-10-19T16:23:33.785Z,12.60
2018-10-19T16:29:43.531Z,12.30
2018-10-19T16:35:06.619Z,12.10
2018-10-19T16:38:06.541Z,12.00
2018-10-19T16:41:29.154Z,11.80
2018-10-19T16:44:56.664Z,11.70
2018-10-19T16:47:38.718Z,11.60
2018-10-19T16:50:55.298Z,11.60
2018-10-19T16:53:30.948Z,11.50
2018-10-19T16:59:35.974Z,11.40
2018-10-19T17:02:11.479Z,11.20
2018-10-19T17:04:44.771Z,11.10
2018-10-19T17:11:01.229Z,11.00
2018-10-19T17:13:32.749Z,11.00
2018-10-19T17:16:10.957Z,10.90
2018-10-19T17:18:49.717Z,10.80
2018-10-19T17:21:22.173Z,10.60
2018-10-19T17:24:19.515Z,10.50
2018-10-19T17:26:57.754Z,10.40
2018-10-19T17:30:23.605Z,10.40
2018-10-19T17:33:10.164Z,10.30
2018-10-19T17:42:06.626Z,9.90
2018-10-19T17:44:51.940Z,9.90
2018-10-19T17:51:28.675Z,9.70
2018-10-19T18:27:25.028Z,9.00
2018-10-19T18:33:27.968Z,8.80
2018-10-19T18:36:08.580Z,8.70
2018-10-19T18:46:30.049Z,8.50
2018-10-19T18:49:27.677Z,8.40
2018-10-19T18:52:38.749Z,8.40
2018-10-19T19:09:07.611Z,8.20
2018-10-19T19:12:36.556Z,8.00
2018-10-19T19:39:56.545Z,7.90
2018-10-19T19:42:32.777Z,7.70
2018-10-19T19:45:44.590Z,7.60
2018-10-19T19:48:42.302Z,7.60
2018-10-19T20:13:12.627Z,7.30
2018-10-19T20:18:49.492Z,7.20
2018-10-19T20:21:42.895Z,7.20
2018-10-19T20:24:30.317Z,7.20
2018-10-19T20:27:14.759Z,7.20
2018-10-19T20:30:01.864Z,7.20
2018-10-19T20:32:41.184Z,7.10
2018-10-19T20:35:14.254Z,7.10
2018-10-19T20:37:56.570Z,7.00
2018-10-19T20:40:41.126Z,7.00
2018-10-19T20:43:14.461Z,7.00
2018-10-19T20:48:28.424Z,7.00
2018-10-19T20:51:00.777Z,6.90
2018-10-19T20:53:40.525Z,6.80
2018-10-19T20:56:12.854Z,6.80
2018-10-19T20:59:14.734Z,6.70
2018-10-19T21:01:51.864Z,6.70
2018-10-19T21:04:41.966Z,6.70
2018-10-19T21:07:21.994Z,6.70
2018-10-19T21:10:04.470Z,6.70
2018-10-19T21:15:37.146Z,6.60
2018-10-19T21:18:08.929Z,6.60
2018-10-19T21:20:40.405Z,6.50
2018-10-19T21:23:13.079Z,6.60
2018-10-19T21:25:45.159Z,6.50
2018-10-19T21:28:14.652Z,6.50
2018-10-19T21:30:45.635Z,6.50
2018-10-19T21:33:14.789Z,6.40
2018-10-19T21:35:44.917Z,6.40
2018-10-19T21:38:14.514Z,6.50
2018-10-19T21:40:47.405Z,6.50
2018-10-19T21:43:17.421Z,6.50
2018-10-19T21:45:50.936Z,6.40
2018-10-19T21:48:20.993Z,6.40
2018-10-19T21:50:50.234Z,6.40
2018-10-19T21:53:20.954Z,6.40
2018-10-19T21:55:52.685Z,6.40
2018-10-19T21:58:21.847Z,6.40
2018-10-19T22:00:50.903Z,6.40
2018-10-19T22:03:20.971Z,6.40
2018-10-19T22:05:50.036Z,6.40
2018-10-19T22:08:20.466Z,6.30
2018-10-19T22:10:51.591Z,6.40
2018-10-19T22:13:24.674Z,6.40
2018-10-19T22:15:57.069Z,6.30
2018-10-19T22:18:26.253Z,6.20
2018-10-19T22:21:03.229Z,6.30
2018-10-19T22:23:32.623Z,6.20
2018-10-19T22:26:01.834Z,6.20
2018-10-19T22:28:32.364Z,6.20
2018-10-19T22:31:03.977Z,6.20
2018-10-19T22:33:33.355Z,6.20
2018-10-19T22:36:03.409Z,6.20
2018-10-19T22:38:32.734Z,6.20
2018-10-19T22:41:02.924Z,6.20
2018-10-19T22:43:32.647Z,6.20
2018-10-19T22:46:03.598Z,6.10
2018-10-19T22:48:32.848Z,6.10
2018-10-19T22:51:05.693Z,6.10
2018-10-19T22:53:34.907Z,6.10
2018-10-19T22:56:07.333Z,6.00
2018-10-19T22:58:36.393Z,6.10
2018-10-19T23:01:10.254Z,6.10
2018-10-19T23:03:42.668Z,6.00
2018-10-19T23:06:14.414Z,6.00
2018-10-19T23:08:44.771Z,6.10
2018-10-19T23:11:14.183Z,6.10
2018-10-19T23:13:45.250Z,6.00
2018-10-19T23:16:14.273Z,6.00
2018-10-19T23:18:48.442Z,6.00
2018-10-19T23:21:17.712Z,6.10
2018-10-19T23:23:46.892Z,6.10
2018-10-19T23:26:16.702Z,6.00
2018-10-19T23:28:45.839Z,6.00
2018-10-19T23:31:14.986Z,6.00
2018-10-19T23:33:45.740Z,6.10
2018-10-19T23:36:14.799Z,6.10
2018-10-19T23:38:43.903Z,6.10
2018-10-19T23:41:13.093Z,6.20
2018-10-19T23:43:42.124Z,6.30
2018-10-19T23:46:11.124Z,6.40
2018-10-19T23:48:40.221Z,6.50
2018-10-19T23:51:09.508Z,6.60
2018-10-19T23:53:39.123Z,6.70
2018-10-19T23:56:08.180Z,6.80
2018-10-19T23:58:37.300Z,6.90
